sensor_id;sensor_type;location;lat;lon;timestamp;temperature;humidity
4435;DHT22;46552;52.150;8.428;2022-08-27T00:01:38;21.90;99.90
4435;DHT22;46552;52.150;8.428;2022-08-27T00:04:06;21.90;99.90
4435;DHT22;46552;52.150;8.428;2022-08-27T00:06:33;21.90;99.90
4435;DHT22;46552;52.150;8.428;2022-08-27T00:09:01;21.90;99.90
4435;DHT22;46552;52.150;8.428;2022-08-27T00:11:31;21.90;99.90
4435;DHT22;46552;52.150;8.428;2022-08-27T00:13:59;21.80;99.90
4435;DHT22;46552;52.150;8.428;2022-08-27T00:16:27;21.70;99.90
4435;DHT22;46552;52.150;8.428;2022-08-27T00:18:55;21.80;99.90
4435;DHT22;46552;52.150;8.428;2022-08-27T00:21:22;21.80;99.90
4435;DHT22;46552;52.150;8.428;2022-08-27T00:23:49;21.70;99.90
4435;DHT22;46552;52.150;8.428;2022-08-27T00:26:17;21.70;99.90
4435;DHT22;46552;52.150;8.428;2022-08-27T00:28:46;21.70;99.90
4435;DHT22;46552;52.150;8.428;2022-08-27T00:31:13;21.70;99.90
4435;DHT22;46552;52.150;8.428;2022-08-27T00:33:40;21.70;99.90
4435;DHT22;46552;52.150;8.428;2022-08-27T00:36:09;21.70;99.90
4435;DHT22;46552;52.150;8.428;2022-08-27T00:38:37;21.60;99.90
4435;DHT22;46552;52.150;8.428;2022-08-27T00:41:06;21.50;99.90
4435;DHT22;46552;52.150;8.428;2022-08-27T00:43:43;21.50;99.90
4435;DHT22;46552;52.150;8.428;2022-08-27T00:46:18;21.50;99.90
4435;DHT22;46552;52.150;8.428;2022-08-27T00:48:48;21.40;99.90
4435;DHT22;46552;52.150;8.428;2022-08-27T00:51:16;21.40;99.90
4435;DHT22;46552;52.150;8.428;2022-08-27T00:53:46;21.40;99.90
4435;DHT22;46552;52.150;8.428;2022-08-27T00:56:16;21.40;99.90
4435;DHT22;46552;52.150;8.428;2022-08-27T00:58:46;21.40;99.90
4435;DHT22;46552;52.150;8.428;2022-08-27T01:01:16;21.40;99.90
4435;DHT22;46552;52.150;8.428;2022-08-27T01:03:46;21.30;99.90
4435;DHT22;46552;52.150;8.428;2022-08-27T01:06:15;21.30;99.90
4435;DHT22;46552;52.150;8.428;2022-08-27T01:08:49;21.20;99.90
4435;DHT22;46552;52.150;8.428;2022-08-27T01:11:17;21.20;99.90
4435;DHT22;46552;52.150;8.428;2022-08-27T01:13:44;21.20;99.90
4435;DHT22;46552;52.150;8.428;2022-08-27T01:16:19;21.20;99.90
4435;DHT22;46552;52.150;8.428;2022-08-27T01:18:48;21.10;99.90
4435;DHT22;46552;52.150;8.428;2022-08-27T01:21:21;21.10;99.90
4435;DHT22;46552;52.150;8.428;2022-08-27T01:23:54;21.10;99.90
4435;DHT22;46552;52.150;8.428;2022-08-27T01:26:24;21.10;99.90
4435;DHT22;46552;52.150;8.428;2022-08-27T01:28:51;21.10;99.90
4435;DHT22;46552;52.150;8.428;2022-08-27T01:31:19;21.10;99.90
4435;DHT22;46552;52.150;8.428;2022-08-27T01:33:54;21.10;99.90
4435;DHT22;46552;52.150;8.428;2022-08-27T01:36:21;21.10;99.90
4435;DHT22;46552;52.150;8.428;2022-08-27T01:38:49;21.00;99.90
4435;DHT22;46552;52.150;8.428;2022-08-27T01:41:16;21.00;99.90
4435;DHT22;46552;52.150;8.428;2022-08-27T01:43:47;21.00;99.90
4435;DHT22;46552;52.150;8.428;2022-08-27T01:46:20;21.00;99.90
4435;DHT22;46552;52.150;8.428;2022-08-27T01:48:47;21.00;99.90
4435;DHT22;46552;52.150;8.428;2022-08-27T01:51:15;21.00;99.90
4435;DHT22;46552;52.150;8.428;2022-08-27T01:53:44;20.90;99.90
4435;DHT22;46552;52.150;8.428;2022-08-27T01:56:11;20.90;99.90
4435;DHT22;46552;52.150;8.428;2022-08-27T01:58:39;20.80;99.90
4435;DHT22;46552;52.150;8.428;2022-08-27T02:01:11;20.80;99.90
4435;DHT22;46552;52.150;8.428;2022-08-27T02:03:39;20.80;99.90
4435;DHT22;46552;52.150;8.428;2022-08-27T02:06:09;20.80;99.90
4435;DHT22;46552;52.150;8.428;2022-08-27T02:08:37;20.80;99.90
4435;DHT22;46552;52.150;8.428;2022-08-27T02:11:07;20.80;99.90
4435;DHT22;46552;52.150;8.428;2022-08-27T02:13:36;20.80;99.90
4435;DHT22;46552;52.150;8.428;2022-08-27T02:16:04;20.80;99.90
4435;DHT22;46552;52.150;8.428;2022-08-27T02:18:36;20.80;99.90
4435;DHT22;46552;52.150;8.428;2022-08-27T02:21:04;20.70;99.90
4435;DHT22;46552;52.150;8.428;2022-08-27T02:23:32;20.80;99.90
4435;DHT22;46552;52.150;8.428;2022-08-27T02:26:00;20.80;99.90
4435;DHT22;46552;52.150;8.428;2022-08-27T02:28:27;20.70;99.90
4435;DHT22;46552;52.150;8.428;2022-08-27T02:30:54;20.70;99.90
4435;DHT22;46552;52.150;8.428;2022-08-27T02:33:21;20.70;99.90
4435;DHT22;46552;52.150;8.428;2022-08-27T02:35:50;20.60;99.90
4435;DHT22;46552;52.150;8.428;2022-08-27T02:38:17;20.50;99.90
4435;DHT22;46552;52.150;8.428;2022-08-27T02:40:45;20.50;99.90
4435;DHT22;46552;52.150;8.428;2022-08-27T02:43:12;20.50;99.90
4435;DHT22;46552;52.150;8.428;2022-08-27T02:45:39;20.50;99.90
4435;DHT22;46552;52.150;8.428;2022-08-27T02:48:07;20.50;99.90
4435;DHT22;46552;52.150;8.428;2022-08-27T02:50:35;20.50;99.90
4435;DHT22;46552;52.150;8.428;2022-08-27T02:53:04;20.50;99.90
4435;DHT22;46552;52.150;8.428;2022-08-27T02:55:32;20.50;99.90
4435;DHT22;46552;52.150;8.428;2022-08-27T02:58:00;20.50;99.90
4435;DHT22;46552;52.150;8.428;2022-08-27T03:00:28;20.50;99.90
4435;DHT22;46552;52.150;8.428;2022-08-27T03:02:56;20.50;99.90
4435;DHT22;46552;52.150;8.428;2022-08-27T03:05:23;20.50;99.90
4435;DHT22;46552;52.150;8.428;2022-08-27T03:07:52;20.50;99.90
4435;DHT22;46552;52.150;8.428;2022-08-27T03:10:22;20.50;99.90
4435;DHT22;46552;52.150;8.428;2022-08-27T03:12:49;20.50;99.90
4435;DHT22;46552;52.150;8.428;2022-08-27T03:15:17;20.50;99.90
4435;DHT22;46552;52.150;8.428;2022-08-27T03:17:45;20.50;99.90
4435;DHT22;46552;52.150;8.428;2022-08-27T03:20:30;20.50;99.90
4435;DHT22;46552;52.150;8.428;2022-08-27T03:22:58;20.50;99.90
4435;DHT22;46552;52.150;8.428;2022-08-27T03:25:28;20.50;99.90
4435;DHT22;46552;52.150;8.428;2022-08-27T03:27:57;20.50;99.90
4435;DHT22;46552;52.150;8.428;2022-08-27T03:30:24;20.50;99.90
4435;DHT22;46552;52.150;8.428;2022-08-27T03:32:53;20.60;99.90
4435;DHT22;46552;52.150;8.428;2022-08-27T03:35:21;20.60;99.90
4435;DHT22;46552;52.150;8.428;2022-08-27T03:37:49;20.50;99.90
4435;DHT22;46552;52.150;8.428;2022-08-27T03:40:17;20.50;99.90
4435;DHT22;46552;52.150;8.428;2022-08-27T03:42:46;20.50;99.90
4435;DHT22;46552;52.150;8.428;2022-08-27T03:45:13;20.50;99.90
4435;DHT22;46552;52.150;8.428;2022-08-27T03:47:41;20.40;99.90
4435;DHT22;46552;52.150;8.428;2022-08-27T03:50:08;20.40;99.90
4435;DHT22;46552;52.150;8.428;2022-08-27T03:52:36;20.40;99.90
4435;DHT22;46552;52.150;8.428;2022-08-27T03:55:06;20.30;99.90
4435;DHT22;46552;52.150;8.428;2022-08-27T03:57:34;20.30;99.90
4435;DHT22;46552;52.150;8.428;2022-08-27T04:00:04;20.30;99.90
4435;DHT22;46552;52.150;8.428;2022-08-27T04:02:32;20.30;99.90
4435;DHT22;46552;52.150;8.428;2022-08-27T04:04:59;20.30;99.90
4435;DHT22;46552;52.150;8.428;2022-08-27T04:07:26;20.30;99.90
4435;DHT22;46552;52.150;8.428;2022-08-27T04:09:54;20.30;99.90
4435;DHT22;46552;52.150;8.428;2022-08-27T04:12:22;20.30;99.90
4435;DHT22;46552;52.150;8.428;2022-08-27T04:14:51;20.20;99.90
4435;DHT22;46552;52.150;8.428;2022-08-27T04:17:19;20.20;99.90
4435;DHT22;46552;52.150;8.428;2022-08-27T04:19:49;20.20;99.90
4435;DHT22;46552;52.150;8.428;2022-08-27T04:22:18;20.20;99.90
4435;DHT22;46552;52.150;8.428;2022-08-27T04:24:46;20.20;99.90
4435;DHT22;46552;52.150;8.428;2022-08-27T04:27:13;20.20;99.90
4435;DHT22;46552;52.150;8.428;2022-08-27T04:29:41;20.20;99.90
4435;DHT22;46552;52.150;8.428;2022-08-27T04:32:09;20.20;99.90
4435;DHT22;46552;52.150;8.428;2022-08-27T04:34:38;20.20;99.90
4435;DHT22;46552;52.150;8.428;2022-08-27T04:37:06;20.20;99.90
4435;DHT22;46552;52.150;8.428;2022-08-27T04:39:33;20.10;99.90
4435;DHT22;46552;52.150;8.428;2022-08-27T04:42:02;20.20;99.90
4435;DHT22;46552;52.150;8.428;2022-08-27T04:44:30;20.20;99.90
4435;DHT22;46552;52.150;8.428;2022-08-27T04:46:59;20.20;99.90
4435;DHT22;46552;52.150;8.428;2022-08-27T04:49:28;20.20;99.90
4435;DHT22;46552;52.150;8.428;2022-08-27T04:51:57;20.20;99.90
4435;DHT22;46552;52.150;8.428;2022-08-27T04:54:24;20.20;99.90
4435;DHT22;46552;52.150;8.428;2022-08-27T04:56:52;20.20;99.90
4435;DHT22;46552;52.150;8.428;2022-08-27T04:59:20;20.20;99.90
4435;DHT22;46552;52.150;8.428;2022-08-27T05:01:48;20.20;99.90
4435;DHT22;46552;52.150;8.428;2022-08-27T05:04:16;20.20;99.90
4435;DHT22;46552;52.150;8.428;2022-08-27T05:06:44;20.20;99.90
4435;DHT22;46552;52.150;8.428;2022-08-27T05:09:17;20.20;99.90
4435;DHT22;46552;52.150;8.428;2022-08-27T05:11:44;20.20;99.90
4435;DHT22;46552;52.150;8.428;2022-08-27T05:14:13;20.20;99.90
4435;DHT22;46552;52.150;8.428;2022-08-27T05:16:41;20.20;99.90
4435;DHT22;46552;52.150;8.428;2022-08-27T05:19:10;20.20;99.90
4435;DHT22;46552;52.150;8.428;2022-08-27T05:21:43;20.20;99.90
4435;DHT22;46552;52.150;8.428;2022-08-27T05:24:14;20.30;99.90
4435;DHT22;46552;52.150;8.428;2022-08-27T05:26:42;20.20;99.90
4435;DHT22;46552;52.150;8.428;2022-08-27T05:29:09;20.20;99.90
4435;DHT22;46552;52.150;8.428;2022-08-27T05:31:38;20.20;99.90
4435;DHT22;46552;52.150;8.428;2022-08-27T05:34:05;20.20;99.90
4435;DHT22;46552;52.150;8.428;2022-08-27T05:36:34;20.20;99.90
4435;DHT22;46552;52.150;8.428;2022-08-27T05:39:03;20.20;99.90
4435;DHT22;46552;52.150;8.428;2022-08-27T05:41:33;20.10;99.90
4435;DHT22;46552;52.150;8.428;2022-08-27T05:44:03;20.20;99.90
4435;DHT22;46552;52.150;8.428;2022-08-27T05:46:30;20.20;99.90
4435;DHT22;46552;52.150;8.428;2022-08-27T05:48:59;20.20;99.90
4435;DHT22;46552;52.150;8.428;2022-08-27T05:51:28;20.30;99.90
4435;DHT22;46552;52.150;8.428;2022-08-27T05:53:58;20.30;99.90
4435;DHT22;46552;52.150;8.428;2022-08-27T05:56:27;20.30;99.90
4435;DHT22;46552;52.150;8.428;2022-08-27T05:58:56;20.30;99.90
4435;DHT22;46552;52.150;8.428;2022-08-27T06:01:43;20.30;99.90
4435;DHT22;46552;52.150;8.428;2022-08-27T06:04:11;20.30;99.90
4435;DHT22;46552;52.150;8.428;2022-08-27T06:06:41;20.30;99.90
4435;DHT22;46552;52.150;8.428;2022-08-27T06:09:12;20.30;99.90
4435;DHT22;46552;52.150;8.428;2022-08-27T06:11:40;20.30;99.90
4435;DHT22;46552;52.150;8.428;2022-08-27T06:14:09;20.30;99.90
4435;DHT22;46552;52.150;8.428;2022-08-27T06:16:37;20.30;99.90
4435;DHT22;46552;52.150;8.428;2022-08-27T06:19:07;20.30;99.90
4435;DHT22;46552;52.150;8.428;2022-08-27T06:21:37;20.40;99.90
4435;DHT22;46552;52.150;8.428;2022-08-27T06:24:05;20.40;99.90
4435;DHT22;46552;52.150;8.428;2022-08-27T06:26:33;20.40;99.90
4435;DHT22;46552;52.150;8.428;2022-08-27T06:29:01;20.40;99.90
4435;DHT22;46552;52.150;8.428;2022-08-27T06:31:32;20.40;99.90
4435;DHT22;46552;52.150;8.428;2022-08-27T06:34:01;20.40;99.90
4435;DHT22;46552;52.150;8.428;2022-08-27T06:36:29;20.40;99.90
4435;DHT22;46552;52.150;8.428;2022-08-27T06:38:57;20.50;99.90
4435;DHT22;46552;52.150;8.428;2022-08-27T06:41:26;20.50;99.90
4435;DHT22;46552;52.150;8.428;2022-08-27T06:43:54;20.60;99.90
4435;DHT22;46552;52.150;8.428;2022-08-27T06:46:24;20.60;99.90
4435;DHT22;46552;52.150;8.428;2022-08-27T06:48:56;20.70;99.90
4435;DHT22;46552;52.150;8.428;2022-08-27T06:51:26;20.60;99.90
4435;DHT22;46552;52.150;8.428;2022-08-27T06:53:55;20.60;99.90
4435;DHT22;46552;52.150;8.428;2022-08-27T06:56:23;20.60;99.90
4435;DHT22;46552;52.150;8.428;2022-08-27T06:58:52;20.60;99.90
4435;DHT22;46552;52.150;8.428;2022-08-27T07:01:22;20.60;99.90
4435;DHT22;46552;52.150;8.428;2022-08-27T07:03:50;20.70;99.90
4435;DHT22;46552;52.150;8.428;2022-08-27T07:06:20;20.60;99.90
4435;DHT22;46552;52.150;8.428;2022-08-27T07:08:48;20.70;99.90
4435;DHT22;46552;52.150;8.428;2022-08-27T07:11:16;20.70;99.90
4435;DHT22;46552;52.150;8.428;2022-08-27T07:13:45;20.70;99.90
4435;DHT22;46552;52.150;8.428;2022-08-27T07:16:14;20.70;99.90
4435;DHT22;46552;52.150;8.428;2022-08-27T07:18:42;20.60;99.90
4435;DHT22;46552;52.150;8.428;2022-08-27T07:21:09;20.60;99.90
4435;DHT22;46552;52.150;8.428;2022-08-27T07:23:38;20.60;99.90
4435;DHT22;46552;52.150;8.428;2022-08-27T07:26:08;20.60;99.90
4435;DHT22;46552;52.150;8.428;2022-08-27T07:28:37;20.60;99.90
4435;DHT22;46552;52.150;8.428;2022-08-27T07:31:05;20.50;99.90
4435;DHT22;46552;52.150;8.428;2022-08-27T07:33:33;20.50;99.90
4435;DHT22;46552;52.150;8.428;2022-08-27T07:36:00;20.40;99.90
4435;DHT22;46552;52.150;8.428;2022-08-27T07:38:28;20.30;99.90
4435;DHT22;46552;52.150;8.428;2022-08-27T07:40:58;20.20;99.90
4435;DHT22;46552;52.150;8.428;2022-08-27T07:43:25;20.10;99.90
4435;DHT22;46552;52.150;8.428;2022-08-27T07:46:11;20.00;99.90
4435;DHT22;46552;52.150;8.428;2022-08-27T07:48:38;19.90;99.90
4435;DHT22;46552;52.150;8.428;2022-08-27T07:51:13;19.70;99.90
4435;DHT22;46552;52.150;8.428;2022-08-27T07:53:42;19.60;99.90
4435;DHT22;46552;52.150;8.428;2022-08-27T07:56:12;19.60;99.90
4435;DHT22;46552;52.150;8.428;2022-08-27T07:58:40;19.50;99.90
4435;DHT22;46552;52.150;8.428;2022-08-27T08:01:08;19.50;99.90
4435;DHT22;46552;52.150;8.428;2022-08-27T08:03:35;19.50;99.90
4435;DHT22;46552;52.150;8.428;2022-08-27T08:06:05;19.40;99.90
4435;DHT22;46552;52.150;8.428;2022-08-27T08:08:34;19.40;99.90
4435;DHT22;46552;52.150;8.428;2022-08-27T08:11:02;19.30;99.90
4435;DHT22;46552;52.150;8.428;2022-08-27T08:13:31;19.30;99.90
4435;DHT22;46552;52.150;8.428;2022-08-27T08:15:58;19.30;99.90
4435;DHT22;46552;52.150;8.428;2022-08-27T08:18:26;19.20;99.90
4435;DHT22;46552;52.150;8.428;2022-08-27T08:20:58;19.20;99.90
4435;DHT22;46552;52.150;8.428;2022-08-27T08:23:26;19.20;99.90
4435;DHT22;46552;52.150;8.428;2022-08-27T08:25:54;19.20;99.90
4435;DHT22;46552;52.150;8.428;2022-08-27T08:28:22;19.20;99.90
4435;DHT22;46552;52.150;8.428;2022-08-27T08:30:52;19.20;99.90
4435;DHT22;46552;52.150;8.428;2022-08-27T08:33:20;19.20;99.90
4435;DHT22;46552;52.150;8.428;2022-08-27T08:35:48;19.20;99.90
4435;DHT22;46552;52.150;8.428;2022-08-27T08:38:16;19.20;99.90
4435;DHT22;46552;52.150;8.428;2022-08-27T08:40:46;19.20;99.90
4435;DHT22;46552;52.150;8.428;2022-08-27T08:43:25;19.20;99.90
4435;DHT22;46552;52.150;8.428;2022-08-27T08:45:56;19.10;99.90
4435;DHT22;46552;52.150;8.428;2022-08-27T08:48:26;19.10;99.90
4435;DHT22;46552;52.150;8.428;2022-08-27T08:51:00;19.10;99.90
4435;DHT22;46552;52.150;8.428;2022-08-27T08:53:37;19.10;99.90
4435;DHT22;46552;52.150;8.428;2022-08-27T08:56:11;19.10;99.90
4435;DHT22;46552;52.150;8.428;2022-08-27T08:58:45;19.10;99.90
4435;DHT22;46552;52.150;8.428;2022-08-27T09:01:17;19.10;99.90
4435;DHT22;46552;52.150;8.428;2022-08-27T09:03:51;19.10;99.90
4435;DHT22;46552;52.150;8.428;2022-08-27T09:06:24;19.10;99.90
4435;DHT22;46552;52.150;8.428;2022-08-27T09:08:52;19.20;99.90
4435;DHT22;46552;52.150;8.428;2022-08-27T09:11:26;19.30;99.90
4435;DHT22;46552;52.150;8.428;2022-08-27T09:13:58;19.30;99.90
4435;DHT22;46552;52.150;8.428;2022-08-27T09:16:29;19.40;99.90
4435;DHT22;46552;52.150;8.428;2022-08-27T09:18:57;19.50;99.90
4435;DHT22;46552;52.150;8.428;2022-08-27T09:21:32;19.50;99.90
4435;DHT22;46552;52.150;8.428;2022-08-27T09:24:06;19.60;99.90
4435;DHT22;46552;52.150;8.428;2022-08-27T09:26:37;19.60;99.90
4435;DHT22;46552;52.150;8.428;2022-08-27T09:29:08;19.70;99.90
4435;DHT22;46552;52.150;8.428;2022-08-27T09:31:45;19.60;99.90
4435;DHT22;46552;52.150;8.428;2022-08-27T09:34:13;19.60;99.90
4435;DHT22;46552;52.150;8.428;2022-08-27T09:36:51;19.60;99.90
4435;DHT22;46552;52.150;8.428;2022-08-27T09:39:21;19.60;99.90
4435;DHT22;46552;52.150;8.428;2022-08-27T09:41:51;19.60;99.90
4435;DHT22;46552;52.150;8.428;2022-08-27T09:44:20;19.60;99.90
4435;DHT22;46552;52.150;8.428;2022-08-27T09:46:57;19.60;99.90
4435;DHT22;46552;52.150;8.428;2022-08-27T09:49:25;19.60;99.90
4435;DHT22;46552;52.150;8.428;2022-08-27T09:51:53;19.60;99.90
4435;DHT22;46552;52.150;8.428;2022-08-27T09:54:29;19.70;99.90
4435;DHT22;46552;52.150;8.428;2022-08-27T09:56:58;19.70;99.90
4435;DHT22;46552;52.150;8.428;2022-08-27T09:59:30;19.70;99.90
4435;DHT22;46552;52.150;8.428;2022-08-27T10:02:05;19.70;99.90
4435;DHT22;46552;52.150;8.428;2022-08-27T10:04:36;19.70;99.90
4435;DHT22;46552;52.150;8.428;2022-08-27T10:07:30;19.60;99.90
4435;DHT22;46552;52.150;8.428;2022-08-27T10:10:04;19.70;99.90
4435;DHT22;46552;52.150;8.428;2022-08-27T10:12:42;19.70;99.90
4435;DHT22;46552;52.150;8.428;2022-08-27T10:15:11;19.70;99.90
4435;DHT22;46552;52.150;8.428;2022-08-27T10:17:49;19.70;99.90
4435;DHT22;46552;52.150;8.428;2022-08-27T10:20:24;19.70;99.90
4435;DHT22;46552;52.150;8.428;2022-08-27T10:22:58;19.70;99.90
4435;DHT22;46552;52.150;8.428;2022-08-27T10:25:36;19.70;99.90
4435;DHT22;46552;52.150;8.428;2022-08-27T10:28:15;19.70;99.90
4435;DHT22;46552;52.150;8.428;2022-08-27T10:31:00;19.70;99.90
4435;DHT22;46552;52.150;8.428;2022-08-27T10:33:40;19.80;99.90
4435;DHT22;46552;52.150;8.428;2022-08-27T10:36:19;19.80;99.90
4435;DHT22;46552;52.150;8.428;2022-08-27T10:38:56;19.80;99.90
4435;DHT22;46552;52.150;8.428;2022-08-27T10:41:33;19.80;99.90
4435;DHT22;46552;52.150;8.428;2022-08-27T10:44:18;19.80;99.90
4435;DHT22;46552;52.150;8.428;2022-08-27T10:46:59;19.90;99.90
4435;DHT22;46552;52.150;8.428;2022-08-27T10:49:38;19.90;99.90
4435;DHT22;46552;52.150;8.428;2022-08-27T10:52:15;20.00;99.90
4435;DHT22;46552;52.150;8.428;2022-08-27T10:54:47;20.10;99.90
4435;DHT22;46552;52.150;8.428;2022-08-27T10:57:22;20.10;99.90
4435;DHT22;46552;52.150;8.428;2022-08-27T10:59:58;20.20;99.90
4435;DHT22;46552;52.150;8.428;2022-08-27T11:02:32;20.30;99.90
4435;DHT22;46552;52.150;8.428;2022-08-27T11:05:13;20.50;99.90
4435;DHT22;46552;52.150;8.428;2022-08-27T11:07:44;20.60;99.90
4435;DHT22;46552;52.150;8.428;2022-08-27T11:10:17;20.70;99.90
4435;DHT22;46552;52.150;8.428;2022-08-27T11:12:47;20.90;99.90
4435;DHT22;46552;52.150;8.428;2022-08-27T11:15:19;21.10;99.90
4435;DHT22;46552;52.150;8.428;2022-08-27T11:17:52;21.20;99.90
4435;DHT22;46552;52.150;8.428;2022-08-27T11:20:26;21.30;99.90
4435;DHT22;46552;52.150;8.428;2022-08-27T11:22:55;21.50;99.90
4435;DHT22;46552;52.150;8.428;2022-08-27T11:25:37;21.60;99.90
4435;DHT22;46552;52.150;8.428;2022-08-27T11:28:07;21.70;99.90
4435;DHT22;46552;52.150;8.428;2022-08-27T11:30:44;21.80;99.90
4435;DHT22;46552;52.150;8.428;2022-08-27T11:33:19;22.00;99.90
4435;DHT22;46552;52.150;8.428;2022-08-27T11:38:58;22.10;99.90
4435;DHT22;46552;52.150;8.428;2022-08-27T11:41:48;22.20;99.90
4435;DHT22;46552;52.150;8.428;2022-08-27T11:44:19;22.20;99.90
4435;DHT22;46552;52.150;8.428;2022-08-27T11:46:52;22.30;99.90
4435;DHT22;46552;52.150;8.428;2022-08-27T11:49:24;22.30;99.90
4435;DHT22;46552;52.150;8.428;2022-08-27T11:51:58;22.30;99.90
4435;DHT22;46552;52.150;8.428;2022-08-27T11:54:30;22.30;99.90
4435;DHT22;46552;52.150;8.428;2022-08-27T11:56:57;22.20;99.90
4435;DHT22;46552;52.150;8.428;2022-08-27T11:59:30;22.30;99.90
4435;DHT22;46552;52.150;8.428;2022-08-27T12:02:16;22.30;99.90
4435;DHT22;46552;52.150;8.428;2022-08-27T12:04:47;22.30;99.90
4435;DHT22;46552;52.150;8.428;2022-08-27T12:07:26;22.30;99.90
4435;DHT22;46552;52.150;8.428;2022-08-27T12:10:12;22.40;99.90
4435;DHT22;46552;52.150;8.428;2022-08-27T12:12:52;22.40;99.90
4435;DHT22;46552;52.150;8.428;2022-08-27T12:15:27;22.30;99.90
4435;DHT22;46552;52.150;8.428;2022-08-27T12:18:07;22.40;99.90
4435;DHT22;46552;52.150;8.428;2022-08-27T12:20:44;22.40;99.90
4435;DHT22;46552;52.150;8.428;2022-08-27T12:23:19;22.50;99.90
4435;DHT22;46552;52.150;8.428;2022-08-27T12:26:25;22.50;99.90
4435;DHT22;46552;52.150;8.428;2022-08-27T12:31:44;22.50;99.90
4435;DHT22;46552;52.150;8.428;2022-08-27T12:34:14;22.50;99.90
4435;DHT22;46552;52.150;8.428;2022-08-27T12:36:44;22.50;99.90
4435;DHT22;46552;52.150;8.428;2022-08-27T12:39:15;22.50;99.90
4435;DHT22;46552;52.150;8.428;2022-08-27T12:41:47;22.50;99.90
4435;DHT22;46552;52.150;8.428;2022-08-27T12:44:22;22.50;99.90
4435;DHT22;46552;52.150;8.428;2022-08-27T12:46:52;22.60;99.90
4435;DHT22;46552;52.150;8.428;2022-08-27T12:49:24;22.60;99.90
4435;DHT22;46552;52.150;8.428;2022-08-27T12:51:52;22.50;99.90
4435;DHT22;46552;52.150;8.428;2022-08-27T12:54:31;22.50;99.90
4435;DHT22;46552;52.150;8.428;2022-08-27T12:57:09;22.50;99.90
4435;DHT22;46552;52.150;8.428;2022-08-27T12:59:58;22.60;99.90
4435;DHT22;46552;52.150;8.428;2022-08-27T13:02:51;22.60;99.90
4435;DHT22;46552;52.150;8.428;2022-08-27T13:05:23;22.60;99.90
4435;DHT22;46552;52.150;8.428;2022-08-27T13:07:51;22.60;99.90
4435;DHT22;46552;52.150;8.428;2022-08-27T13:10:23;22.60;99.90
4435;DHT22;46552;52.150;8.428;2022-08-27T13:13:03;22.60;99.90
4435;DHT22;46552;52.150;8.428;2022-08-27T13:15:31;22.60;99.90
4435;DHT22;46552;52.150;8.428;2022-08-27T13:18:00;22.60;99.90
4435;DHT22;46552;52.150;8.428;2022-08-27T13:20:28;22.70;99.90
4435;DHT22;46552;52.150;8.428;2022-08-27T13:22:57;22.70;99.90
4435;DHT22;46552;52.150;8.428;2022-08-27T13:25:26;22.70;99.90
4435;DHT22;46552;52.150;8.428;2022-08-27T13:27:56;22.70;99.80
4435;DHT22;46552;52.150;8.428;2022-08-27T13:30:31;22.70;99.70
4435;DHT22;46552;52.150;8.428;2022-08-27T13:32:59;22.70;99.60
4435;DHT22;46552;52.150;8.428;2022-08-27T13:35:26;22.80;99.60
4435;DHT22;46552;52.150;8.428;2022-08-27T13:37:54;22.80;99.50
4435;DHT22;46552;52.150;8.428;2022-08-27T13:40:24;22.90;99.30
4435;DHT22;46552;52.150;8.428;2022-08-27T13:42:54;22.90;99.20
4435;DHT22;46552;52.150;8.428;2022-08-27T13:45:22;22.90;99.10
4435;DHT22;46552;52.150;8.428;2022-08-27T13:47:51;22.90;99.00
4435;DHT22;46552;52.150;8.428;2022-08-27T13:50:23;22.90;98.80
4435;DHT22;46552;52.150;8.428;2022-08-27T13:52:53;22.90;98.60
4435;DHT22;46552;52.150;8.428;2022-08-27T13:55:46;22.80;98.40
4435;DHT22;46552;52.150;8.428;2022-08-27T13:58:18;22.70;98.50
4435;DHT22;46552;52.150;8.428;2022-08-27T14:00:46;22.70;98.80
4435;DHT22;46552;52.150;8.428;2022-08-27T14:03:30;22.70;98.50
4435;DHT22;46552;52.150;8.428;2022-08-27T14:05:58;22.60;98.30
4435;DHT22;46552;52.150;8.428;2022-08-27T14:08:29;22.70;98.60
4435;DHT22;46552;52.150;8.428;2022-08-27T14:11:01;22.70;98.60
4435;DHT22;46552;52.150;8.428;2022-08-27T14:13:37;22.70;98.60
4435;DHT22;46552;52.150;8.428;2022-08-27T14:16:14;22.70;98.60
4435;DHT22;46552;52.150;8.428;2022-08-27T14:18:52;22.70;98.50
4435;DHT22;46552;52.150;8.428;2022-08-27T14:21:20;22.70;98.50
4435;DHT22;46552;52.150;8.428;2022-08-27T14:23:48;22.70;98.50
4435;DHT22;46552;52.150;8.428;2022-08-27T14:26:15;22.70;98.40
4435;DHT22;46552;52.150;8.428;2022-08-27T14:28:43;22.60;98.40
4435;DHT22;46552;52.150;8.428;2022-08-27T14:31:10;22.60;98.20
4435;DHT22;46552;52.150;8.428;2022-08-27T14:33:38;22.60;98.20
4435;DHT22;46552;52.150;8.428;2022-08-27T14:36:08;22.60;98.10
4435;DHT22;46552;52.150;8.428;2022-08-27T14:38:37;22.60;98.20
4435;DHT22;46552;52.150;8.428;2022-08-27T14:41:04;22.60;98.30
4435;DHT22;46552;52.150;8.428;2022-08-27T14:43:33;22.60;98.20
4435;DHT22;46552;52.150;8.428;2022-08-27T14:46:00;22.60;98.10
4435;DHT22;46552;52.150;8.428;2022-08-27T14:48:30;22.60;98.10
4435;DHT22;46552;52.150;8.428;2022-08-27T14:50:59;22.50;98.00
4435;DHT22;46552;52.150;8.428;2022-08-27T14:53:30;22.60;98.20
4435;DHT22;46552;52.150;8.428;2022-08-27T14:55:57;22.60;98.10
4435;DHT22;46552;52.150;8.428;2022-08-27T14:58:26;22.60;98.00
4435;DHT22;46552;52.150;8.428;2022-08-27T15:00:54;22.50;97.90
4435;DHT22;46552;52.150;8.428;2022-08-27T15:03:22;22.50;97.90
4435;DHT22;46552;52.150;8.428;2022-08-27T15:05:50;22.50;98.00
4435;DHT22;46552;52.150;8.428;2022-08-27T15:08:19;22.40;98.00
4435;DHT22;46552;52.150;8.428;2022-08-27T15:10:49;22.50;98.00
4435;DHT22;46552;52.150;8.428;2022-08-27T15:13:17;22.50;97.90
4435;DHT22;46552;52.150;8.428;2022-08-27T15:15:44;22.50;97.80
4435;DHT22;46552;52.150;8.428;2022-08-27T15:18:11;22.50;97.90
4435;DHT22;46552;52.150;8.428;2022-08-27T15:20:39;22.50;97.90
4435;DHT22;46552;52.150;8.428;2022-08-27T15:23:07;22.50;97.90
4435;DHT22;46552;52.150;8.428;2022-08-27T15:25:35;22.40;97.70
4435;DHT22;46552;52.150;8.428;2022-08-27T15:28:03;22.40;97.70
4435;DHT22;46552;52.150;8.428;2022-08-27T15:30:31;22.40;97.70
4435;DHT22;46552;52.150;8.428;2022-08-27T15:32:59;22.30;97.60
4435;DHT22;46552;52.150;8.428;2022-08-27T15:35:26;22.30;97.50
4435;DHT22;46552;52.150;8.428;2022-08-27T15:37:55;22.30;97.70
4435;DHT22;46552;52.150;8.428;2022-08-27T15:40:23;22.30;97.30
4435;DHT22;46552;52.150;8.428;2022-08-27T15:42:55;22.30;97.30
4435;DHT22;46552;52.150;8.428;2022-08-27T15:45:26;22.30;97.30
4435;DHT22;46552;52.150;8.428;2022-08-27T15:47:53;22.30;97.20
4435;DHT22;46552;52.150;8.428;2022-08-27T15:50:20;22.20;97.20
4435;DHT22;46552;52.150;8.428;2022-08-27T15:52:52;22.20;97.20
4435;DHT22;46552;52.150;8.428;2022-08-27T15:55:23;22.20;96.90
4435;DHT22;46552;52.150;8.428;2022-08-27T15:57:51;22.20;97.50
4435;DHT22;46552;52.150;8.428;2022-08-27T16:00:20;22.20;97.30
4435;DHT22;46552;52.150;8.428;2022-08-27T16:02:50;22.20;97.30
4435;DHT22;46552;52.150;8.428;2022-08-27T16:05:18;22.20;97.40
4435;DHT22;46552;52.150;8.428;2022-08-27T16:07:46;22.20;97.30
4435;DHT22;46552;52.150;8.428;2022-08-27T16:10:14;22.20;97.20
4435;DHT22;46552;52.150;8.428;2022-08-27T16:12:41;22.20;97.10